Time;durP1;ratioP1;P1;durP2;ratioP2;P2;SDS_P1;SDS_P2;PMS_P1;PMS_P2;Temp;Humidity;BMP_temperature;BMP_pressure;BME280_temperature;BME280_humidity;BME280_pressure;Samples;Min_cycle;Max_cycle;Signal;HPM_P1;HPM_P2
2023/12/11 00:01:03;;;;;;;;;;;;;;;6.54;95.90;99490.41;4169138;28;20015;-69
2023/12/11 00:03:05;;;;;;;;;;;;;;;6.53;96.21;99484.16;4169331;28;20371;-69
2023/12/11 00:05:08;;;;;;;;;;;;;;;6.52;96.18;99487.88;4169636;28;20012;-69
2023/12/11 00:07:10;;;;;;;;;;;;;;;6.52;96.36;99473.63;4169989;28;20024;-69
2023/12/11 00:09:13;;;;;;;;;;;;;;;6.51;96.31;99469.28;4170515;28;20032;-69
2023/12/11 00:11:18;;;;;;;;;;;;;;;6.51;96.54;99466.63;4169920;28;20019;-68
2023/12/11 00:13:21;;;;;;;;;;;;;;;6.49;96.25;99459.56;4170850;28;20465;-69
2023/12/11 00:15:23;;;;;;;;;;;;;;;6.51;96.21;99458.56;4170186;28;20034;-69
2023/12/11 00:17:24;;;;;;;;;;;;;;;6.44;96.17;99443.19;4170477;28;20025;-69
2023/12/11 00:19:26;;;;;;;;;;;;;;;6.48;96.16;99449.03;4170353;28;20357;-70
2023/12/11 00:21:28;;;;;;;;;;;;;;;6.47;96.41;99448.19;4170076;28;20008;-69
2023/12/11 00:23:29;;;;;;;;;;;;;;;6.46;96.70;99441.16;4169782;28;20023;-69
2023/12/11 00:25:32;;;;;;;;;;;;;;;6.46;96.48;99441.16;4170603;28;19956;-69
2023/12/11 00:27:34;;;;;;;;;;;;;;;6.46;96.73;99435.78;4170327;28;20016;-69
2023/12/11 00:29:38;;;;;;;;;;;;;;;6.46;96.78;99426.94;4170119;28;20023;-69
2023/12/11 00:31:40;;;;;;;;;;;;;;;6.45;96.62;99420.69;4169393;28;19944;-69
2023/12/11 00:33:42;;;;;;;;;;;;;;;6.45;96.50;99411.84;4170273;28;20036;-69
2023/12/11 00:35:47;;;;;;;;;;;;;;;6.42;96.70;99407.66;4170448;28;20039;-68
2023/12/11 00:37:48;;;;;;;;;;;;;;;6.44;96.75;99402.13;4170693;28;20016;-69
2023/12/11 00:39:50;;;;;;;;;;;;;;;6.43;96.76;99395.94;4168447;28;20011;-69
2023/12/11 00:41:52;;;;;;;;;;;;;;;6.43;96.90;99393.25;4170227;28;20023;-69
2023/12/11 00:43:54;;;;;;;;;;;;;;;6.42;96.98;99385.38;4170239;28;20387;-69
2023/12/11 00:45:57;;;;;;;;;;;;;;;6.42;96.88;99378.16;4169978;28;20023;-70
2023/12/11 00:48:00;;;;;;;;;;;;;;;6.43;96.87;99377.16;4170334;28;20015;-69
2023/12/11 00:50:02;;;;;;;;;;;;;;;6.41;96.90;99376.50;4169553;28;20361;-69
2023/12/11 00:52:03;;;;;;;;;;;;;;;6.41;97.04;99357.75;4169383;28;19975;-69
2023/12/11 00:54:05;;;;;;;;;;;;;;;6.41;97.11;99352.38;4169624;28;20023;-69
2023/12/11 00:56:07;;;;;;;;;;;;;;;6.41;97.01;99351.53;4170590;28;20462;-69
2023/12/11 00:58:10;;;;;;;;;;;;;;;6.41;97.05;99347.00;4168639;28;20028;-69
2023/12/11 01:00:12;;;;;;;;;;;;;;;6.41;97.26;99341.66;4169554;28;20023;-69
2023/12/11 01:02:17;;;;;;;;;;;;;;;6.39;97.19;99334.78;4169402;28;20024;-69
2023/12/11 01:04:19;;;;;;;;;;;;;;;6.40;97.41;99339.16;4170449;28;20044;-69
2023/12/11 01:06:21;;;;;;;;;;;;;;;6.40;97.30;99321.19;4169988;28;20414;-69
2023/12/11 01:08:27;;;;;;;;;;;;;;;6.39;97.08;99322.19;4169773;28;20019;-69
2023/12/11 01:10:29;;;;;;;;;;;;;;;6.39;97.26;99310.66;4169366;28;20457;-69
2023/12/11 01:12:30;;;;;;;;;;;;;;;6.40;97.12;99307.78;4168795;28;19969;-69
2023/12/11 01:14:32;;;;;;;;;;;;;;;6.40;97.17;99304.28;4169501;28;20033;-69
2023/12/11 01:16:34;;;;;;;;;;;;;;;6.40;97.29;99296.25;4170041;28;20008;-69
2023/12/11 01:18:38;;;;;;;;;;;;;;;6.40;97.44;99285.50;4169180;28;20012;-69
2023/12/11 01:20:40;;;;;;;;;;;;;;;6.40;97.53;99277.47;4168204;28;20036;-69
2023/12/11 01:22:42;;;;;;;;;;;;;;;6.40;97.47;99275.59;4169606;28;20373;-68
2023/12/11 01:24:44;;;;;;;;;;;;;;;6.40;97.30;99282.84;4168612;28;20039;-69
2023/12/11 01:26:46;;;;;;;;;;;;;;;6.39;97.49;99271.25;4170010;28;20063;-69
2023/12/11 01:28:48;;;;;;;;;;;;;;;6.41;97.54;99268.38;4170570;28;20019;-69
2023/12/11 01:30:50;;;;;;;;;;;;;;;6.40;97.40;99264.06;4169693;28;20020;-69
2023/12/11 01:32:51;;;;;;;;;;;;;;;6.37;97.40;99259.88;4169795;28;19932;-69
2023/12/11 01:34:54;;;;;;;;;;;;;;;6.36;97.85;99266.25;4169623;28;19959;-69
2023/12/11 01:36:56;;;;;;;;;;;;;;;6.36;97.68;99255.53;4169977;28;20455;-69
2023/12/11 01:38:58;;;;;;;;;;;;;;;6.38;97.76;99249.97;4170194;28;20019;-69
2023/12/11 01:41:01;;;;;;;;;;;;;;;6.40;97.44;99256.84;4169197;28;20044;-69
2023/12/11 01:43:13;;;;;;;;;;;;;;;6.39;97.69;99254.34;4170033;28;20456;-69
2023/12/11 01:45:15;;;;;;;;;;;;;;;6.39;97.83;99247.13;4170361;28;20375;-69
2023/12/11 01:47:16;;;;;;;;;;;;;;;6.39;97.49;99249.78;4172393;28;20020;-68
2023/12/11 01:49:18;;;;;;;;;;;;;;;6.40;97.94;99261.38;4172753;28;19968;-69
2023/12/11 01:51:22;;;;;;;;;;;;;;;6.42;97.59;99259.34;4172215;28;20026;-68
2023/12/11 01:53:24;;;;;;;;;;;;;;;6.41;97.89;99250.47;4173224;28;19968;-68
2023/12/11 01:55:26;;;;;;;;;;;;;;;6.41;97.54;99223.66;4173017;28;20028;-69
2023/12/11 01:57:28;;;;;;;;;;;;;;;6.41;97.64;99207.56;4169817;28;20363;-68
2023/12/11 01:59:30;;;;;;;;;;;;;;;6.42;97.92;99219.94;4171392;28;20039;-68
2023/12/11 02:01:32;;;;;;;;;;;;;;;6.43;97.66;99228.81;4170201;28;20357;-68
2023/12/11 02:03:34;;;;;;;;;;;;;;;6.46;98.04;99228.44;4154722;28;19956;-68
2023/12/11 02:05:36;;;;;;;;;;;;;;;6.45;97.66;99230.28;4172087;28;20378;-68
2023/12/11 02:07:40;;;;;;;;;;;;;;;6.45;97.93;99214.19;4172763;28;20020;-68
2023/12/11 02:09:42;;;;;;;;;;;;;;;6.46;97.92;99190.91;4171739;28;20019;-69
2023/12/11 02:11:44;;;;;;;;;;;;;;;6.46;97.83;99194.41;4171575;28;20019;-69
2023/12/11 02:13:49;;;;;;;;;;;;;;;6.46;97.99;99226.59;4171936;28;20291;-69
2023/12/11 02:15:51;;;;;;;;;;;;;;;6.47;97.83;99200.59;4172526;28;20015;-69
2023/12/11 02:17:53;;;;;;;;;;;;;;;6.48;97.94;99199.59;4171964;28;20012;-69
2023/12/11 02:19:55;;;;;;;;;;;;;;;6.51;98.18;99193.84;4172164;28;20035;-69
2023/12/11 02:21:57;;;;;;;;;;;;;;;6.50;98.17;99192.16;4172412;28;20008;-69
2023/12/11 02:24:03;;;;;;;;;;;;;;;6.50;98.06;99189.47;4172849;28;20016;-69
2023/12/11 02:26:10;;;;;;;;;;;;;;;6.51;97.99;99182.28;4172460;28;20025;-69
2023/12/11 02:28:12;;;;;;;;;;;;;;;6.52;98.19;99173.22;4172521;28;20019;-70
2023/12/11 02:30:14;;;;;;;;;;;;;;;6.53;98.17;99164.16;4171731;28;20576;-69
2023/12/11 02:32:19;;;;;;;;;;;;;;;6.52;98.12;99176.75;4171717;28;19924;-70
2023/12/11 02:34:21;;;;;;;;;;;;;;;6.53;98.03;99175.69;4172036;28;20361;-69
2023/12/11 02:36:23;;;;;;;;;;;;;;;6.53;98.41;99172.19;4172061;28;20031;-69
2023/12/11 02:38:24;;;;;;;;;;;;;;;6.53;98.45;99162.28;4171719;28;20027;-69
2023/12/11 02:40:26;;;;;;;;;;;;;;;6.54;98.55;99161.28;4171926;28;20027;-70
2023/12/11 02:42:29;;;;;;;;;;;;;;;6.56;98.33;99158.41;4171875;28;20008;-70
2023/12/11 02:44:31;;;;;;;;;;;;;;;6.58;98.29;99159.03;4171458;28;20020;-70
2023/12/11 02:46:33;;;;;;;;;;;;;;;6.59;98.55;99161.53;4172232;28;20462;-69
2023/12/11 02:48:35;;;;;;;;;;;;;;;6.60;98.79;99159.66;4171759;28;20023;-69
2023/12/11 02:50:37;;;;;;;;;;;;;;;6.59;98.84;99152.66;4171817;28;20051;-70
2023/12/11 02:52:39;;;;;;;;;;;;;;;6.60;98.66;99157.00;4171201;28;20012;-70
2023/12/11 02:54:41;;;;;;;;;;;;;;;6.61;98.63;99146.06;4172117;28;20399;-69
2023/12/11 02:56:42;;;;;;;;;;;;;;;6.61;98.77;99137.19;4171705;28;20016;-69
2023/12/11 02:58:45;;;;;;;;;;;;;;;6.63;98.69;99137.81;4154615;28;20028;-69
2023/12/11 03:00:47;;;;;;;;;;;;;;;6.63;98.97;99149.41;4171197;28;20373;-70
2023/12/11 03:02:48;;;;;;;;;;;;;;;6.65;99.17;99143.84;4171621;28;20019;-70
2023/12/11 03:04:50;;;;;;;;;;;;;;;6.65;99.00;99142.00;4171237;28;20399;-69
2023/12/11 03:06:52;;;;;;;;;;;;;;;6.65;99.01;99142.00;4172048;28;20011;-69
2023/12/11 03:08:54;;;;;;;;;;;;;;;6.68;98.93;99138.09;4171684;28;20024;-69
2023/12/11 03:10:56;;;;;;;;;;;;;;;6.69;99.31;99142.44;4170611;28;20028;-69
2023/12/11 03:12:59;;;;;;;;;;;;;;;6.70;99.46;99125.31;4170826;28;20020;-70
2023/12/11 03:15:01;;;;;;;;;;;;;;;6.71;99.31;99140.41;4171931;28;19978;-69
2023/12/11 03:17:03;;;;;;;;;;;;;;;6.72;99.38;99141.22;4171005;28;20019;-69
2023/12/11 03:19:05;;;;;;;;;;;;;;;6.73;99.66;99145.59;4171501;28;20023;-69
2023/12/11 03:21:08;;;;;;;;;;;;;;;6.72;99.84;99128.63;4170964;28;20055;-69
2023/12/11 03:23:11;;;;;;;;;;;;;;;6.73;99.53;99141.03;4171858;28;20016;-69
2023/12/11 03:25:13;;;;;;;;;;;;;;;6.74;99.61;99152.59;4169919;28;20455;-69
2023/12/11 03:27:15;;;;;;;;;;;;;;;6.75;99.86;99148.91;4169674;28;20035;-69
2023/12/11 03:29:17;;;;;;;;;;;;;;;6.75;100.00;99141.66;4169581;28;20458;-68
2023/12/11 03:31:20;;;;;;;;;;;;;;;6.78;99.69;99159.25;4170182;28;20027;-69
2023/12/11 03:33:22;;;;;;;;;;;;;;;6.77;100.00;99149.53;4170644;28;20032;-69
2023/12/11 03:35:24;;;;;;;;;;;;;;;6.78;100.00;99162.75;4171660;28;20028;-69
2023/12/11 03:37:25;;;;;;;;;;;;;;;6.79;99.71;99155.56;4171667;28;20004;-69
2023/12/11 03:39:27;;;;;;;;;;;;;;;6.80;100.00;99165.25;4171268;28;20027;-69
2023/12/11 03:41:29;;;;;;;;;;;;;;;6.79;99.96;99169.78;4170505;28;20027;-69
2023/12/11 03:43:31;;;;;;;;;;;;;;;6.79;99.92;99172.47;4170680;28;20024;-69
2023/12/11 03:45:33;;;;;;;;;;;;;;;6.80;99.69;99174.16;4171596;28;20386;-69
2023/12/11 03:47:36;;;;;;;;;;;;;;;6.80;99.58;99176.84;4170684;28;20011;-69
2023/12/11 03:49:38;;;;;;;;;;;;;;;6.81;99.69;99180.34;4170349;28;20032;-69
2023/12/11 03:51:40;;;;;;;;;;;;;;;6.84;99.40;99196.06;4170538;28;20016;-69
2023/12/11 03:53:42;;;;;;;;;;;;;;;6.84;99.36;99186.16;4171332;28;20414;-69
2023/12/11 03:55:44;;;;;;;;;;;;;;;6.84;99.43;99186.16;4170968;28;19936;-69
2023/12/11 03:57:46;;;;;;;;;;;;;;;6.86;99.69;99188.63;4170780;28;20376;-69
2023/12/11 03:59:48;;;;;;;;;;;;;;;6.88;99.61;99180.41;4170580;28;20024;-69
2023/12/11 04:01:50;;;;;;;;;;;;;;;6.87;99.75;99184.94;4169753;28;20015;-69
2023/12/11 04:03:53;;;;;;;;;;;;;;;6.89;99.75;99195.50;4169879;28;20016;-69
2023/12/11 04:05:55;;;;;;;;;;;;;;;6.90;99.86;99215.94;4168857;28;20019;-69
2023/12/11 04:07:57;;;;;;;;;;;;;;;6.91;99.85;99210.38;4170448;28;20020;-69
2023/12/11 04:09:59;;;;;;;;;;;;;;;6.91;99.94;99202.34;4169932;28;20450;-69
2023/12/11 04:12:01;;;;;;;;;;;;;;;6.92;99.89;99201.28;4137435;28;20057;-69
2023/12/11 04:14:02;;;;;;;;;;;;;;;6.94;99.84;99209.16;4166606;28;20032;-69
2023/12/11 04:16:05;;;;;;;;;;;;;;;6.94;99.93;99209.16;4170195;28;19947;-69
2023/12/11 04:18:07;;;;;;;;;;;;;;;6.94;100.00;99201.91;4171085;28;20007;-69
2023/12/11 04:20:10;;;;;;;;;;;;;;;6.95;99.65;99197.41;4170071;28;20032;-70
2023/12/11 04:22:12;;;;;;;;;;;;;;;6.95;100.00;99202.78;4170080;28;20047;-69
2023/12/11 04:24:14;;;;;;;;;;;;;;;6.97;99.93;99206.09;4168864;28;20007;-69
2023/12/11 04:26:16;;;;;;;;;;;;;;;6.98;99.98;99213.13;4169994;28;20023;-69
2023/12/11 04:28:18;;;;;;;;;;;;;;;7.01;100.00;99223.50;4170941;28;20015;-69
2023/12/11 04:30:19;;;;;;;;;;;;;;;6.99;99.86;99214.78;4169460;28;20015;-69
2023/12/11 04:32:21;;;;;;;;;;;;;;;7.00;99.83;99217.25;4170320;28;20015;-70
2023/12/11 04:34:24;;;;;;;;;;;;;;;7.01;99.89;99213.56;4170231;28;20028;-69
2023/12/11 04:36:27;;;;;;;;;;;;;;;7.02;100.00;99223.28;4170310;28;19929;-69
2023/12/11 04:38:29;;;;;;;;;;;;;;;7.03;99.80;99226.81;4169630;28;20019;-69
2023/12/11 04:40:30;;;;;;;;;;;;;;;7.04;100.00;99223.09;4169809;28;20033;-70
2023/12/11 04:42:32;;;;;;;;;;;;;;;7.04;99.86;99226.63;4169557;28;20019;-69
2023/12/11 04:44:35;;;;;;;;;;;;;;;7.06;99.91;99244.38;4169982;28;20013;-69
2023/12/11 04:46:37;;;;;;;;;;;;;;;7.06;100.00;99231.78;4136341;28;19969;-70
2023/12/11 04:48:38;;;;;;;;;;;;;;;7.06;100.00;99229.09;4170244;28;20051;-69
2023/12/11 04:50:40;;;;;;;;;;;;;;;7.07;100.00;99222.72;4168976;28;20031;-70
2023/12/11 04:52:44;;;;;;;;;;;;;;;7.09;100.00;99238.63;4169399;28;20401;-69
2023/12/11 04:54:46;;;;;;;;;;;;;;;7.08;100.00;99242.34;4170983;28;20019;-69
2023/12/11 04:56:48;;;;;;;;;;;;;;;7.10;100.00;99237.59;4170689;28;20024;-70
2023/12/11 04:58:50;;;;;;;;;;;;;;;7.09;100.00;99250.19;4170357;28;20016;-69
2023/12/11 05:00:52;;;;;;;;;;;;;;;7.10;100.00;99249.19;4153057;28;20004;-71
2023/12/11 05:02:54;;;;;;;;;;;;;;;7.12;100.00;99249.81;4171190;28;20023;-71
2023/12/11 05:04:57;;;;;;;;;;;;;;;7.12;100.00;99232.88;4137889;28;20443;-71
2023/12/11 05:06:59;;;;;;;;;;;;;;;7.13;100.00;99253.31;4171304;28;20032;-70
2023/12/11 05:09:02;;;;;;;;;;;;;;;7.13;100.00;99254.19;4171451;28;20036;-71
2023/12/11 05:11:04;;;;;;;;;;;;;;;7.14;100.00;99263.88;4171260;28;20377;-72
2023/12/11 05:13:05;;;;;;;;;;;;;;;7.15;100.00;99244.06;4138734;28;20001;-70
2023/12/11 05:15:08;;;;;;;;;;;;;;;7.15;99.99;99260.19;4169637;28;21374;-71
2023/12/11 05:17:10;;;;;;;;;;;;;;;7.16;100.00;99264.53;4171824;28;19928;-71
2023/12/11 05:19:11;;;;;;;;;;;;;;;7.16;99.85;99253.78;4171357;28;19975;-71
2023/12/11 05:21:13;;;;;;;;;;;;;;;7.17;99.99;99251.94;4173500;28;19933;-71
2023/12/11 05:23:15;;;;;;;;;;;;;;;7.16;99.76;99258.31;4174583;28;20020;-71
2023/12/11 05:25:19;;;;;;;;;;;;;;;7.18;99.63;99257.13;4174631;28;20039;-70
2023/12/11 05:27:21;;;;;;;;;;;;;;;7.18;99.55;99257.13;4174029;28;20020;-71
2023/12/11 05:29:23;;;;;;;;;;;;;;;7.18;99.69;99262.47;4173430;28;20027;-71
2023/12/11 05:31:24;;;;;;;;;;;;;;;7.20;99.52;99278.41;4174698;28;19993;-71
2023/12/11 05:33:26;;;;;;;;;;;;;;;7.19;99.54;99269.53;4157430;28;19964;-70
2023/12/11 05:35:28;;;;;;;;;;;;;;;7.20;99.66;99283.78;4172311;28;20450;-71
2023/12/11 05:37:30;;;;;;;;;;;;;;;7.21;99.71;99269.34;4174931;28;19956;-71
2023/12/11 05:39:32;;;;;;;;;;;;;;;7.20;99.39;99276.53;4170948;28;20016;-70
2023/12/11 05:41:35;;;;;;;;;;;;;;;7.19;99.69;99250.72;4173055;28;20019;-71
2023/12/11 05:43:37;;;;;;;;;;;;;;;7.20;99.41;99271.16;4171021;28;20703;-70
2023/12/11 05:45:39;;;;;;;;;;;;;;;7.21;99.33;99267.47;4171074;28;20012;-70
2023/12/11 05:47:41;;;;;;;;;;;;;;;7.22;99.54;99262.91;4170935;28;20008;-70
2023/12/11 05:49:44;;;;;;;;;;;;;;;7.22;99.50;99274.50;4172336;28;20035;-71
2023/12/11 05:51:45;;;;;;;;;;;;;;;7.23;99.01;99269.97;4173533;28;19967;-71
2023/12/11 05:53:47;;;;;;;;;;;;;;;7.22;99.06;99276.34;4173470;28;19957;-70
2023/12/11 05:55:49;;;;;;;;;;;;;;;7.23;98.91;99267.28;4174012;28;20024;-71
2023/12/11 05:57:53;;;;;;;;;;;;;;;7.23;99.17;99269.97;4173515;28;20395;-72
2023/12/11 05:59:54;;;;;;;;;;;;;;;7.24;99.03;99285.06;4173381;28;19925;-71
2023/12/11 06:01:56;;;;;;;;;;;;;;;7.24;98.89;99281.53;4174178;28;20028;-71
2023/12/11 06:04:00;;;;;;;;;;;;;;;7.25;99.09;99272.47;4174651;28;20012;-71
2023/12/11 06:06:02;;;;;;;;;;;;;;;7.24;98.93;99277.00;4157043;28;20024;-71
2023/12/11 06:08:04;;;;;;;;;;;;;;;7.25;98.64;99281.34;4173080;28;20020;-71
2023/12/11 06:10:07;;;;;;;;;;;;;;;7.24;98.69;99282.38;4170731;28;20036;-71
2023/12/11 06:12:10;;;;;;;;;;;;;;;7.25;98.90;99280.53;4172600;28;19984;-71
2023/12/11 06:14:13;;;;;;;;;;;;;;;7.26;98.69;99291.06;4172977;28;20008;-71
2023/12/11 06:16:15;;;;;;;;;;;;;;;7.25;98.76;99277.84;4172565;28;20012;-71
2023/12/11 06:18:18;;;;;;;;;;;;;;;7.26;98.69;99282.16;4173097;28;19929;-71
2023/12/11 06:20:21;;;;;;;;;;;;;;;7.25;98.71;99283.19;4172206;28;20051;-71
2023/12/11 06:22:23;;;;;;;;;;;;;;;7.26;98.84;99282.16;4172933;28;20020;-71
2023/12/11 06:24:25;;;;;;;;;;;;;;;7.26;98.38;99276.78;4172925;28;20023;-71
2023/12/11 06:26:28;;;;;;;;;;;;;;;7.26;98.72;99292.91;4173922;28;20020;-71
2023/12/11 06:28:30;;;;;;;;;;;;;;;7.27;98.62;99289.19;4173659;28;20450;-71
2023/12/11 06:30:33;;;;;;;;;;;;;;;7.27;98.50;99286.50;4172364;28;20027;-71
2023/12/11 06:32:35;;;;;;;;;;;;;;;7.27;98.71;99283.84;4171882;28;20019;-71
2023/12/11 06:34:37;;;;;;;;;;;;;;;7.27;98.66;99295.41;4172711;28;20064;-71
2023/12/11 06:36:39;;;;;;;;;;;;;;;7.28;98.63;99285.50;4172817;28;20360;-70
2023/12/11 06:38:41;;;;;;;;;;;;;;;7.28;98.70;99294.38;4172345;28;20379;-69
2023/12/11 06:40:43;;;;;;;;;;;;;;;7.28;98.55;99291.69;4173017;28;20709;-69
2023/12/11 06:42:45;;;;;;;;;;;;;;;7.28;98.35;99296.25;4172536;28;19996;-69
2023/12/11 06:44:46;;;;;;;;;;;;;;;7.29;98.50;99297.88;4172661;28;20019;-70
2023/12/11 06:46:50;;;;;;;;;;;;;;;7.28;98.59;99299.75;4171203;28;20038;-70
2023/12/11 06:48:52;;;;;;;;;;;;;;;7.28;98.65;99299.75;4172117;28;20032;-69
2023/12/11 06:50:54;;;;;;;;;;;;;;;7.29;98.58;99301.44;4170220;28;20409;-70
2023/12/11 06:52:56;;;;;;;;;;;;;;;7.30;98.71;99299.56;4170297;28;20047;-70
2023/12/11 06:54:58;;;;;;;;;;;;;;;7.29;98.58;99301.44;4171365;28;20028;-69
2023/12/11 06:57:00;;;;;;;;;;;;;;;7.30;98.43;99307.63;4171060;28;20015;-70
2023/12/11 06:59:02;;;;;;;;;;;;;;;7.30;98.64;99308.44;4169583;28;20458;-69
2023/12/11 07:01:04;;;;;;;;;;;;;;;7.31;98.50;99303.94;4169927;28;20024;-69
2023/12/11 07:03:08;;;;;;;;;;;;;;;7.31;98.35;99306.59;4169845;28;20028;-71
2023/12/11 07:05:10;;;;;;;;;;;;;;;7.32;98.64;99310.94;4172012;28;20370;-70
2023/12/11 07:07:11;;;;;;;;;;;;;;;7.32;98.28;99302.88;4171495;28;19999;-70
2023/12/11 07:09:13;;;;;;;;;;;;;;;7.33;98.24;99312.63;4170730;28;20028;-70
2023/12/11 07:11:15;;;;;;;;;;;;;;;7.32;98.51;99319.84;4170356;28;20359;-70
2023/12/11 07:13:18;;;;;;;;;;;;;;;7.32;98.41;99319.84;4172090;28;20028;-70
2023/12/11 07:15:21;;;;;;;;;;;;;;;7.33;98.20;99307.25;4171544;28;20036;-70
2023/12/11 07:17:23;;;;;;;;;;;;;;;7.33;98.52;99312.63;4171285;28;20044;-70
2023/12/11 07:19:26;;;;;;;;;;;;;;;7.33;98.48;99310.75;4170035;28;19924;-70
2023/12/11 07:21:28;;;;;;;;;;;;;;;7.35;98.27;99324.00;4169907;28;20016;-70
2023/12/11 07:23:30;;;;;;;;;;;;;;;7.34;98.18;99320.47;4170791;28;20019;-70
2023/12/11 07:25:32;;;;;;;;;;;;;;;7.34;98.11;99320.47;4170063;28;20446;-70
2023/12/11 07:27:34;;;;;;;;;;;;;;;7.36;98.40;99317.59;4171414;28;20023;-70
2023/12/11 07:29:36;;;;;;;;;;;;;;;7.37;98.41;99316.59;4171108;28;20019;-70
2023/12/11 07:31:39;;;;;;;;;;;;;;;7.35;98.45;99349.00;4171147;28;20036;-70
2023/12/11 07:33:41;;;;;;;;;;;;;;;7.36;98.12;99339.09;4171928;28;20278;-70
2023/12/11 07:35:44;;;;;;;;;;;;;;;7.37;98.47;99336.22;4171654;28;20008;-70
2023/12/11 07:37:46;;;;;;;;;;;;;;;7.37;98.10;99338.91;4171710;28;20020;-70
2023/12/11 07:39:47;;;;;;;;;;;;;;;7.37;98.42;99340.75;4171283;28;20011;-70
2023/12/11 07:41:49;;;;;;;;;;;;;;;7.37;98.37;99343.44;4170916;28;20024;-70
2023/12/11 07:43:51;;;;;;;;;;;;;;;7.37;98.32;99348.81;4171372;28;20454;-68
2023/12/11 07:45:53;;;;;;;;;;;;;;;7.38;98.02;99345.94;4170857;28;20068;-68
2023/12/11 07:47:55;;;;;;;;;;;;;;;7.39;98.02;99342.22;4152618;28;20036;-68
2023/12/11 07:49:56;;;;;;;;;;;;;;;7.39;97.83;99338.72;4171347;28;20032;-68
2023/12/11 07:52:01;;;;;;;;;;;;;;;7.39;98.15;99358.34;4137651;28;20021;-68
2023/12/11 07:54:03;;;;;;;;;;;;;;;7.39;98.06;99338.72;4171508;28;20024;-68
2023/12/11 07:56:06;;;;;;;;;;;;;;;7.40;97.88;99356.50;4170748;28;20052;-72
2023/12/11 07:58:08;;;;;;;;;;;;;;;7.40;97.70;99337.69;4171193;28;20020;-70
2023/12/11 08:00:11;;;;;;;;;;;;;;;7.39;98.02;99339.53;4170208;28;19958;-70
2023/12/11 08:02:13;;;;;;;;;;;;;;;7.41;97.81;99347.41;4170966;28;20024;-68
2023/12/11 08:04:15;;;;;;;;;;;;;;;7.41;97.85;99344.72;4170868;28;20031;-68
2023/12/11 08:06:17;;;;;;;;;;;;;;;7.43;97.66;99339.16;4171097;28;20059;-68
2023/12/11 08:08:20;;;;;;;;;;;;;;;7.42;97.68;99343.72;4170715;28;20027;-70
2023/12/11 08:10:21;;;;;;;;;;;;;;;7.42;97.65;99338.34;4170872;28;20028;-70
2023/12/11 08:12:25;;;;;;;;;;;;;;;7.43;97.31;99340.00;4170191;28;19980;-68
2023/12/11 08:14:27;;;;;;;;;;;;;;;7.43;97.45;99336.47;4170886;28;20024;-70
2023/12/11 08:16:29;;;;;;;;;;;;;;;7.44;97.15;99340.81;4138419;28;20016;-70
2023/12/11 08:18:32;;;;;;;;;;;;;;;7.44;97.33;99332.78;4171031;28;20449;-68
2023/12/11 08:20:34;;;;;;;;;;;;;;;7.43;97.05;99340.00;4169742;28;20016;-70
2023/12/11 08:22:35;;;;;;;;;;;;;;;7.44;96.95;99330.09;4171219;28;20024;-68
2023/12/11 08:24:38;;;;;;;;;;;;;;;7.44;97.10;99330.91;4170921;28;19956;-71
2023/12/11 08:26:40;;;;;;;;;;;;;;;7.44;96.82;99336.28;4170343;28;20012;-68
2023/12/11 08:28:42;;;;;;;;;;;;;;;7.45;96.92;99331.75;4153449;28;20048;-68
2023/12/11 08:30:44;;;;;;;;;;;;;;;7.45;96.96;99340.63;4148944;28;20393;-68
2023/12/11 08:32:46;;;;;;;;;;;;;;;7.46;96.92;99333.41;4170601;28;20020;-68
2023/12/11 08:34:48;;;;;;;;;;;;;;;7.45;96.59;99332.56;4171052;28;20031;-68
2023/12/11 08:36:51;;;;;;;;;;;;;;;7.47;96.61;99321.63;4170883;28;20017;-68
2023/12/11 08:38:53;;;;;;;;;;;;;;;7.46;96.50;99328.03;4170652;28;20025;-70
2023/12/11 08:40:57;;;;;;;;;;;;;;;7.47;96.61;99321.63;4170596;28;19968;-68
2023/12/11 08:42:59;;;;;;;;;;;;;;;7.47;96.71;99330.53;4169026;28;20015;-73
2023/12/11 08:45:01;;;;;;;;;;;;;;;7.48;96.63;99324.13;4170406;28;20585;-70
2023/12/11 08:47:03;;;;;;;;;;;;;;;7.48;96.54;99318.75;4170989;28;20068;-68
2023/12/11 08:49:06;;;;;;;;;;;;;;;7.49;96.29;99316.91;4170595;28;20012;-69
2023/12/11 08:51:08;;;;;;;;;;;;;;;7.49;96.46;99317.75;4170528;28;20442;-69
2023/12/11 08:53:10;;;;;;;;;;;;;;;7.49;96.41;99333.88;4170903;28;20023;-69
2023/12/11 08:55:12;;;;;;;;;;;;;;;7.49;96.62;99309.69;4170283;28;20016;-71
2023/12/11 08:57:15;;;;;;;;;;;;;;;7.50;96.66;99310.50;4169912;28;20015;-71
2023/12/11 08:59:18;;;;;;;;;;;;;;;7.50;96.58;99314.03;4170550;28;20013;-68
2023/12/11 09:01:20;;;;;;;;;;;;;;;7.51;96.45;99321.06;4170127;28;19929;-69
2023/12/11 09:03:22;;;;;;;;;;;;;;;7.52;96.39;99319.19;4170425;28;20339;-68
2023/12/11 09:05:23;;;;;;;;;;;;;;;7.52;96.46;99316.50;4169691;28;20444;-68
2023/12/11 09:07:25;;;;;;;;;;;;;;;7.52;96.62;99316.50;4170571;28;20019;-68
2023/12/11 09:09:27;;;;;;;;;;;;;;;7.54;96.28;99327.91;4146915;28;20058;-73
2023/12/11 09:11:29;;;;;;;;;;;;;;;7.53;96.38;99321.69;4169931;28;20041;-69
2023/12/11 09:13:31;;;;;;;;;;;;;;;7.53;96.40;99313.63;4170907;28;20454;-70
2023/12/11 09:15:33;;;;;;;;;;;;;;;7.54;96.49;99311.81;4170112;28;20015;-69
2023/12/11 09:17:35;;;;;;;;;;;;;;;7.56;96.74;99307.88;4171045;28;20012;-68
2023/12/11 09:19:37;;;;;;;;;;;;;;;7.55;96.50;99305.38;4170013;28;20024;-69
2023/12/11 09:21:40;;;;;;;;;;;;;;;7.56;96.64;99310.56;4170195;28;19933;-68
2023/12/11 09:23:42;;;;;;;;;;;;;;;7.57;96.70;99308.72;4170449;28;20019;-71
2023/12/11 09:25:45;;;;;;;;;;;;;;;7.57;97.09;99309.56;4170905;28;20029;-69
2023/12/11 09:27:47;;;;;;;;;;;;;;;7.58;96.82;99305.81;4170424;28;20015;-72
2023/12/11 09:29:49;;;;;;;;;;;;;;;7.58;97.11;99311.19;4170472;28;20031;-71
2023/12/11 09:31:52;;;;;;;;;;;;;;;7.59;96.92;99301.31;4169907;28;20031;-68
2023/12/11 09:33:54;;;;;;;;;;;;;;;7.60;97.18;99304.81;4170599;28;20019;-69
2023/12/11 09:35:56;;;;;;;;;;;;;;;7.60;97.13;99300.25;4169948;28;20020;-69
2023/12/11 09:37:58;;;;;;;;;;;;;;;7.61;97.25;99303.78;4170529;28;20033;-69
2023/12/11 09:40:00;;;;;;;;;;;;;;;7.61;97.05;99299.25;4169571;28;20470;-69
2023/12/11 09:42:03;;;;;;;;;;;;;;;7.62;97.28;99300.91;4137059;28;19925;-69
2023/12/11 09:44:05;;;;;;;;;;;;;;;7.63;97.28;99291.00;4169969;28;20020;-69
2023/12/11 09:46:09;;;;;;;;;;;;;;;7.64;97.22;99303.41;4170257;28;20028;-70
2023/12/11 09:48:11;;;;;;;;;;;;;;;7.65;97.45;99302.38;4169964;28;20012;-69
2023/12/11 09:50:13;;;;;;;;;;;;;;;7.64;97.26;99293.47;4170387;28;20031;-69
2023/12/11 09:52:16;;;;;;;;;;;;;;;7.67;97.53;99306.53;4170049;28;20023;-71
2023/12/11 09:54:17;;;;;;;;;;;;;;;7.67;97.50;99301.16;4170058;28;20358;-71
2023/12/11 09:56:19;;;;;;;;;;;;;;;7.66;97.29;99294.09;4170142;28;20433;-69
2023/12/11 09:58:21;;;;;;;;;;;;;;;7.68;97.26;99297.47;4170030;28;20015;-70
2023/12/11 10:00:23;;;;;;;;;;;;;;;7.68;97.24;99300.16;4170006;28;20020;-69
2023/12/11 10:02:27;;;;;;;;;;;;;;;7.69;97.32;99300.97;4169886;28;20608;-73
2023/12/11 10:04:29;;;;;;;;;;;;;;;7.69;97.36;99304.47;4169769;28;20523;-69
2023/12/11 10:06:32;;;;;;;;;;;;;;;7.71;97.28;99304.28;4171210;28;20015;-72
2023/12/11 10:08:40;;;;;;;;;;;;;;;7.71;97.31;99309.66;4173334;28;20015;-68
2023/12/11 10:10:42;;;;;;;;;;;;;;;7.72;97.47;99312.16;4172556;28;20016;-68
2023/12/11 10:12:43;;;;;;;;;;;;;;;7.72;97.73;99309.47;4172951;28;20361;-69
2023/12/11 10:14:47;;;;;;;;;;;;;;;7.71;97.76;99306.97;4172918;28;19925;-70
2023/12/11 10:16:49;;;;;;;;;;;;;;;7.72;97.63;99306.78;4173263;28;20357;-69
2023/12/11 10:18:51;;;;;;;;;;;;;;;7.73;97.79;99315.69;4172193;28;20027;-69
2023/12/11 10:20:54;;;;;;;;;;;;;;;7.73;97.79;99295.00;4173198;28;20036;-69
2023/12/11 10:22:56;;;;;;;;;;;;;;;7.73;97.75;99305.75;4172754;28;19929;-68
2023/12/11 10:24:58;;;;;;;;;;;;;;;7.74;97.82;99307.44;4172180;28;20430;-69
2023/12/11 10:27:02;;;;;;;;;;;;;;;7.74;98.07;99301.22;4171957;28;20008;-69
2023/12/11 10:29:17;;;;;;;;;;;;;;;7.74;98.19;99314.66;4172649;28;20020;-68
2023/12/11 10:31:19;;;;;;;;;;;;;;;7.74;98.04;99301.22;4172327;28;20015;-72
2023/12/11 10:33:22;;;;;;;;;;;;;;;7.74;98.39;99299.38;4155477;28;19964;-72
2023/12/11 10:35:25;;;;;;;;;;;;;;;7.75;98.25;99292.13;4171914;28;20019;-71
2023/12/11 10:37:28;;;;;;;;;;;;;;;7.74;98.47;99291.31;4172812;28;20013;-71
2023/12/11 10:39:30;;;;;;;;;;;;;;;7.73;98.52;99289.63;4172418;28;20032;-68
2023/12/11 10:41:32;;;;;;;;;;;;;;;7.74;98.41;99290.47;4171913;28;20019;-68
2023/12/11 10:43:39;;;;;;;;;;;;;;;7.74;98.72;99282.41;4172379;28;20446;-68